sensor_id;sensor_type;location;lat;lon;timestamp;temperature;humidity
3996;DHT22;2012;49.794;9.722;2023-04-24T00:01:16;12.30;99.90
3996;DHT22;2012;49.794;9.722;2023-04-24T00:03:43;12.20;99.90
3996;DHT22;2012;49.794;9.722;2023-04-24T00:06:10;12.30;99.90
3996;DHT22;2012;49.794;9.722;2023-04-24T00:08:37;12.40;99.90
3996;DHT22;2012;49.794;9.722;2023-04-24T00:11:04;12.30;99.90
3996;DHT22;2012;49.794;9.722;2023-04-24T00:13:30;12.30;99.90
3996;DHT22;2012;49.794;9.722;2023-04-24T00:15:57;12.30;99.90
3996;DHT22;2012;49.794;9.722;2023-04-24T00:18:24;12.40;99.90
3996;DHT22;2012;49.794;9.722;2023-04-24T00:20:51;12.40;99.90
3996;DHT22;2012;49.794;9.722;2023-04-24T00:23:18;12.40;99.90
3996;DHT22;2012;49.794;9.722;2023-04-24T00:25:45;12.30;99.90
3996;DHT22;2012;49.794;9.722;2023-04-24T00:28:12;12.20;99.90
3996;DHT22;2012;49.794;9.722;2023-04-24T00:30:40;12.40;99.90
3996;DHT22;2012;49.794;9.722;2023-04-24T00:33:07;12.40;99.90
3996;DHT22;2012;49.794;9.722;2023-04-24T00:35:33;12.50;99.90
3996;DHT22;2012;49.794;9.722;2023-04-24T00:38:00;12.10;99.90
3996;DHT22;2012;49.794;9.722;2023-04-24T00:40:28;12.10;99.90
3996;DHT22;2012;49.794;9.722;2023-04-24T00:42:54;12.20;99.90
3996;DHT22;2012;49.794;9.722;2023-04-24T00:45:22;12.00;99.90
3996;DHT22;2012;49.794;9.722;2023-04-24T00:47:49;12.00;99.90
3996;DHT22;2012;49.794;9.722;2023-04-24T00:50:21;12.10;99.90
3996;DHT22;2012;49.794;9.722;2023-04-24T00:52:48;12.20;99.90
3996;DHT22;2012;49.794;9.722;2023-04-24T00:55:15;12.30;99.90
3996;DHT22;2012;49.794;9.722;2023-04-24T00:57:43;12.20;99.90
3996;DHT22;2012;49.794;9.722;2023-04-24T01:00:11;12.10;99.90
3996;DHT22;2012;49.794;9.722;2023-04-24T01:02:40;11.90;99.90
3996;DHT22;2012;49.794;9.722;2023-04-24T01:05:14;12.10;99.90
3996;DHT22;2012;49.794;9.722;2023-04-24T01:07:45;11.90;99.90
3996;DHT22;2012;49.794;9.722;2023-04-24T01:10:13;12.10;99.90
3996;DHT22;2012;49.794;9.722;2023-04-24T01:12:40;12.10;99.90
3996;DHT22;2012;49.794;9.722;2023-04-24T01:15:08;12.20;99.90
3996;DHT22;2012;49.794;9.722;2023-04-24T01:17:35;12.30;99.90
3996;DHT22;2012;49.794;9.722;2023-04-24T01:20:03;12.10;99.90
3996;DHT22;2012;49.794;9.722;2023-04-24T01:22:35;11.90;99.90
3996;DHT22;2012;49.794;9.722;2023-04-24T01:25:04;11.90;99.90
3996;DHT22;2012;49.794;9.722;2023-04-24T01:27:31;11.90;99.90
3996;DHT22;2012;49.794;9.722;2023-04-24T01:29:58;11.90;99.90
3996;DHT22;2012;49.794;9.722;2023-04-24T01:32:26;11.90;99.90
3996;DHT22;2012;49.794;9.722;2023-04-24T01:34:54;11.90;99.90
3996;DHT22;2012;49.794;9.722;2023-04-24T01:37:21;11.90;99.90
3996;DHT22;2012;49.794;9.722;2023-04-24T01:39:48;11.90;99.90
3996;DHT22;2012;49.794;9.722;2023-04-24T01:42:16;11.80;99.90
3996;DHT22;2012;49.794;9.722;2023-04-24T01:44:45;11.90;99.90
3996;DHT22;2012;49.794;9.722;2023-04-24T01:47:13;11.80;99.90
3996;DHT22;2012;49.794;9.722;2023-04-24T01:49:40;11.70;99.90
3996;DHT22;2012;49.794;9.722;2023-04-24T01:52:07;11.80;99.90
3996;DHT22;2012;49.794;9.722;2023-04-24T01:54:34;11.70;99.90
3996;DHT22;2012;49.794;9.722;2023-04-24T01:57:01;11.90;99.90
3996;DHT22;2012;49.794;9.722;2023-04-24T01:59:30;12.00;99.90
3996;DHT22;2012;49.794;9.722;2023-04-24T02:01:57;11.90;99.90
3996;DHT22;2012;49.794;9.722;2023-04-24T02:04:24;12.00;99.90
3996;DHT22;2012;49.794;9.722;2023-04-24T02:06:51;11.90;99.90
3996;DHT22;2012;49.794;9.722;2023-04-24T02:09:18;12.00;99.90
3996;DHT22;2012;49.794;9.722;2023-04-24T02:11:45;11.90;99.90
3996;DHT22;2012;49.794;9.722;2023-04-24T02:14:11;12.00;99.90
3996;DHT22;2012;49.794;9.722;2023-04-24T02:16:39;12.00;99.90
3996;DHT22;2012;49.794;9.722;2023-04-24T02:19:06;11.80;99.90
3996;DHT22;2012;49.794;9.722;2023-04-24T02:21:33;11.70;99.90
3996;DHT22;2012;49.794;9.722;2023-04-24T02:24:00;11.80;99.90
3996;DHT22;2012;49.794;9.722;2023-04-24T02:26:27;11.90;99.90
3996;DHT22;2012;49.794;9.722;2023-04-24T02:28:54;11.80;99.90
3996;DHT22;2012;49.794;9.722;2023-04-24T02:31:21;11.70;99.90
3996;DHT22;2012;49.794;9.722;2023-04-24T02:33:48;11.80;99.90
3996;DHT22;2012;49.794;9.722;2023-04-24T02:36:15;11.70;99.90
3996;DHT22;2012;49.794;9.722;2023-04-24T02:38:41;11.80;99.90
3996;DHT22;2012;49.794;9.722;2023-04-24T02:41:08;11.80;99.90
3996;DHT22;2012;49.794;9.722;2023-04-24T02:43:35;11.70;99.90
3996;DHT22;2012;49.794;9.722;2023-04-24T02:46:02;11.80;99.90
3996;DHT22;2012;49.794;9.722;2023-04-24T02:48:29;11.80;99.90
3996;DHT22;2012;49.794;9.722;2023-04-24T02:50:56;11.80;99.90
3996;DHT22;2012;49.794;9.722;2023-04-24T02:53:24;11.90;99.90
3996;DHT22;2012;49.794;9.722;2023-04-24T02:55:51;12.00;99.90
3996;DHT22;2012;49.794;9.722;2023-04-24T02:58:18;11.80;99.90
3996;DHT22;2012;49.794;9.722;2023-04-24T03:00:46;11.80;99.90
3996;DHT22;2012;49.794;9.722;2023-04-24T03:03:14;11.80;99.90
3996;DHT22;2012;49.794;9.722;2023-04-24T03:05:41;11.80;99.90
3996;DHT22;2012;49.794;9.722;2023-04-24T03:08:08;11.70;99.90
3996;DHT22;2012;49.794;9.722;2023-04-24T03:10:35;11.90;99.90
3996;DHT22;2012;49.794;9.722;2023-04-24T03:13:02;11.80;99.90
3996;DHT22;2012;49.794;9.722;2023-04-24T03:15:29;11.80;99.90
3996;DHT22;2012;49.794;9.722;2023-04-24T03:17:55;11.80;99.90
3996;DHT22;2012;49.794;9.722;2023-04-24T03:20:23;11.80;99.90
3996;DHT22;2012;49.794;9.722;2023-04-24T03:22:50;11.80;99.90
3996;DHT22;2012;49.794;9.722;2023-04-24T03:25:17;11.70;99.90
3996;DHT22;2012;49.794;9.722;2023-04-24T03:27:44;11.60;99.90
3996;DHT22;2012;49.794;9.722;2023-04-24T03:30:20;11.70;99.90
3996;DHT22;2012;49.794;9.722;2023-04-24T03:32:53;11.70;99.90
3996;DHT22;2012;49.794;9.722;2023-04-24T03:35:24;11.70;99.90
3996;DHT22;2012;49.794;9.722;2023-04-24T03:37:52;11.70;99.90
3996;DHT22;2012;49.794;9.722;2023-04-24T03:40:57;11.70;99.90
3996;DHT22;2012;49.794;9.722;2023-04-24T03:43:35;11.90;99.90
3996;DHT22;2012;49.794;9.722;2023-04-24T03:46:03;11.80;99.90
3996;DHT22;2012;49.794;9.722;2023-04-24T03:48:32;11.80;99.90
3996;DHT22;2012;49.794;9.722;2023-04-24T03:51:00;11.80;99.90
3996;DHT22;2012;49.794;9.722;2023-04-24T03:53:28;11.70;99.90
3996;DHT22;2012;49.794;9.722;2023-04-24T03:55:56;11.70;99.90
3996;DHT22;2012;49.794;9.722;2023-04-24T03:58:23;11.70;99.90
3996;DHT22;2012;49.794;9.722;2023-04-24T04:00:51;11.70;99.90
3996;DHT22;2012;49.794;9.722;2023-04-24T04:03:39;11.70;99.90
3996;DHT22;2012;49.794;9.722;2023-04-24T04:06:06;11.70;99.90
3996;DHT22;2012;49.794;9.722;2023-04-24T04:08:33;11.70;99.90
3996;DHT22;2012;49.794;9.722;2023-04-24T04:11:01;11.70;99.90
3996;DHT22;2012;49.794;9.722;2023-04-24T04:13:30;11.70;99.90
3996;DHT22;2012;49.794;9.722;2023-04-24T04:15:57;11.70;99.90
3996;DHT22;2012;49.794;9.722;2023-04-24T04:18:24;11.70;99.90
3996;DHT22;2012;49.794;9.722;2023-04-24T04:20:51;11.80;99.90
3996;DHT22;2012;49.794;9.722;2023-04-24T04:23:18;11.80;99.90
3996;DHT22;2012;49.794;9.722;2023-04-24T04:25:55;11.80;99.90
3996;DHT22;2012;49.794;9.722;2023-04-24T04:28:26;11.80;99.90
3996;DHT22;2012;49.794;9.722;2023-04-24T04:30:53;11.60;99.90
3996;DHT22;2012;49.794;9.722;2023-04-24T04:33:24;11.70;99.90
3996;DHT22;2012;49.794;9.722;2023-04-24T04:35:52;11.60;99.90
3996;DHT22;2012;49.794;9.722;2023-04-24T04:38:20;11.50;99.90
3996;DHT22;2012;49.794;9.722;2023-04-24T04:40:56;11.50;99.90
3996;DHT22;2012;49.794;9.722;2023-04-24T04:43:26;11.50;99.90
3996;DHT22;2012;49.794;9.722;2023-04-24T04:45:54;11.40;99.90
3996;DHT22;2012;49.794;9.722;2023-04-24T04:48:35;11.40;99.90
3996;DHT22;2012;49.794;9.722;2023-04-24T04:51:04;11.30;99.90
3996;DHT22;2012;49.794;9.722;2023-04-24T04:53:31;11.40;99.90
3996;DHT22;2012;49.794;9.722;2023-04-24T04:55:58;11.30;99.90
3996;DHT22;2012;49.794;9.722;2023-04-24T04:58:35;11.30;99.90
3996;DHT22;2012;49.794;9.722;2023-04-24T05:01:03;11.20;99.90
3996;DHT22;2012;49.794;9.722;2023-04-24T05:03:35;11.10;99.90
3996;DHT22;2012;49.794;9.722;2023-04-24T05:06:07;11.20;99.90
3996;DHT22;2012;49.794;9.722;2023-04-24T05:08:37;11.20;99.90
3996;DHT22;2012;49.794;9.722;2023-04-24T05:11:07;11.30;99.90
3996;DHT22;2012;49.794;9.722;2023-04-24T05:13:34;11.30;99.90
3996;DHT22;2012;49.794;9.722;2023-04-24T05:16:17;11.30;99.90
3996;DHT22;2012;49.794;9.722;2023-04-24T05:18:45;11.20;99.90
3996;DHT22;2012;49.794;9.722;2023-04-24T05:21:14;11.20;99.90
3996;DHT22;2012;49.794;9.722;2023-04-24T05:23:45;11.20;99.90
3996;DHT22;2012;49.794;9.722;2023-04-24T05:26:18;11.20;99.90
3996;DHT22;2012;49.794;9.722;2023-04-24T05:28:45;11.30;99.90
3996;DHT22;2012;49.794;9.722;2023-04-24T05:31:14;11.20;99.90
3996;DHT22;2012;49.794;9.722;2023-04-24T05:33:41;11.20;99.90
3996;DHT22;2012;49.794;9.722;2023-04-24T05:36:08;11.30;99.90
3996;DHT22;2012;49.794;9.722;2023-04-24T05:38:35;11.10;99.90
3996;DHT22;2012;49.794;9.722;2023-04-24T05:41:02;11.40;99.90
3996;DHT22;2012;49.794;9.722;2023-04-24T05:43:29;11.70;99.90
3996;DHT22;2012;49.794;9.722;2023-04-24T05:45:55;11.40;99.90
3996;DHT22;2012;49.794;9.722;2023-04-24T05:48:22;11.20;99.90
3996;DHT22;2012;49.794;9.722;2023-04-24T05:50:49;11.20;99.90
3996;DHT22;2012;49.794;9.722;2023-04-24T05:53:17;11.10;99.90
3996;DHT22;2012;49.794;9.722;2023-04-24T05:55:44;11.20;99.90
3996;DHT22;2012;49.794;9.722;2023-04-24T05:58:12;11.20;99.90
3996;DHT22;2012;49.794;9.722;2023-04-24T06:00:39;11.10;99.90
3996;DHT22;2012;49.794;9.722;2023-04-24T06:03:09;11.10;99.90
3996;DHT22;2012;49.794;9.722;2023-04-24T06:05:36;11.00;99.90
3996;DHT22;2012;49.794;9.722;2023-04-24T06:08:03;11.10;99.90
3996;DHT22;2012;49.794;9.722;2023-04-24T06:10:35;11.00;99.90
3996;DHT22;2012;49.794;9.722;2023-04-24T06:13:02;11.00;99.90
3996;DHT22;2012;49.794;9.722;2023-04-24T06:15:30;11.10;99.90
3996;DHT22;2012;49.794;9.722;2023-04-24T06:18:06;10.90;99.90
3996;DHT22;2012;49.794;9.722;2023-04-24T06:20:33;10.90;99.90
3996;DHT22;2012;49.794;9.722;2023-04-24T06:23:01;10.90;99.90
3996;DHT22;2012;49.794;9.722;2023-04-24T06:25:28;11.00;99.90
3996;DHT22;2012;49.794;9.722;2023-04-24T06:27:55;11.00;99.90
3996;DHT22;2012;49.794;9.722;2023-04-24T06:30:23;11.00;99.90
3996;DHT22;2012;49.794;9.722;2023-04-24T06:32:50;10.90;99.90
3996;DHT22;2012;49.794;9.722;2023-04-24T06:35:17;11.00;99.90
3996;DHT22;2012;49.794;9.722;2023-04-24T06:37:45;11.00;99.90
3996;DHT22;2012;49.794;9.722;2023-04-24T06:40:12;11.00;99.90
3996;DHT22;2012;49.794;9.722;2023-04-24T06:42:39;11.00;99.90
3996;DHT22;2012;49.794;9.722;2023-04-24T06:45:08;11.10;99.90
3996;DHT22;2012;49.794;9.722;2023-04-24T06:47:34;11.10;99.90
3996;DHT22;2012;49.794;9.722;2023-04-24T06:50:01;11.20;99.90
3996;DHT22;2012;49.794;9.722;2023-04-24T06:52:28;11.00;99.90
3996;DHT22;2012;49.794;9.722;2023-04-24T06:55:03;11.10;99.90
3996;DHT22;2012;49.794;9.722;2023-04-24T06:57:31;11.10;99.90
3996;DHT22;2012;49.794;9.722;2023-04-24T06:59:58;11.10;99.90
3996;DHT22;2012;49.794;9.722;2023-04-24T07:02:25;11.20;99.90
3996;DHT22;2012;49.794;9.722;2023-04-24T07:04:52;11.30;99.90
3996;DHT22;2012;49.794;9.722;2023-04-24T07:07:19;11.30;99.90
3996;DHT22;2012;49.794;9.722;2023-04-24T07:09:50;11.30;99.90
3996;DHT22;2012;49.794;9.722;2023-04-24T07:12:17;11.40;99.90
3996;DHT22;2012;49.794;9.722;2023-04-24T07:14:47;11.60;99.90
3996;DHT22;2012;49.794;9.722;2023-04-24T07:17:14;11.40;99.90
3996;DHT22;2012;49.794;9.722;2023-04-24T07:19:42;11.50;99.90
3996;DHT22;2012;49.794;9.722;2023-04-24T07:22:09;11.60;99.90
3996;DHT22;2012;49.794;9.722;2023-04-24T07:24:39;11.60;99.90
3996;DHT22;2012;49.794;9.722;2023-04-24T07:27:06;11.60;99.90
3996;DHT22;2012;49.794;9.722;2023-04-24T07:29:33;11.60;99.90
3996;DHT22;2012;49.794;9.722;2023-04-24T07:32:00;11.70;99.90
3996;DHT22;2012;49.794;9.722;2023-04-24T07:34:29;11.70;99.90
3996;DHT22;2012;49.794;9.722;2023-04-24T07:36:56;11.60;99.90
3996;DHT22;2012;49.794;9.722;2023-04-24T07:39:24;11.50;99.90
3996;DHT22;2012;49.794;9.722;2023-04-24T07:41:50;11.60;99.90
3996;DHT22;2012;49.794;9.722;2023-04-24T07:44:17;11.70;99.90
3996;DHT22;2012;49.794;9.722;2023-04-24T07:46:44;11.70;99.90
3996;DHT22;2012;49.794;9.722;2023-04-24T07:49:11;11.60;99.90
3996;DHT22;2012;49.794;9.722;2023-04-24T07:51:40;11.60;99.90
3996;DHT22;2012;49.794;9.722;2023-04-24T07:54:08;11.60;99.90
3996;DHT22;2012;49.794;9.722;2023-04-24T07:56:35;11.60;99.90
3996;DHT22;2012;49.794;9.722;2023-04-24T07:59:05;11.60;99.90
3996;DHT22;2012;49.794;9.722;2023-04-24T08:01:32;11.50;99.90
3996;DHT22;2012;49.794;9.722;2023-04-24T08:03:59;11.50;99.90
3996;DHT22;2012;49.794;9.722;2023-04-24T08:06:26;11.40;99.90
3996;DHT22;2012;49.794;9.722;2023-04-24T08:08:57;11.40;99.90
3996;DHT22;2012;49.794;9.722;2023-04-24T08:11:25;11.50;99.90
3996;DHT22;2012;49.794;9.722;2023-04-24T08:13:52;11.40;99.90
3996;DHT22;2012;49.794;9.722;2023-04-24T08:16:19;11.30;99.90
3996;DHT22;2012;49.794;9.722;2023-04-24T08:18:45;11.40;99.90
3996;DHT22;2012;49.794;9.722;2023-04-24T08:21:12;11.40;99.90
3996;DHT22;2012;49.794;9.722;2023-04-24T08:23:44;11.40;99.90
3996;DHT22;2012;49.794;9.722;2023-04-24T08:26:12;11.30;99.90
3996;DHT22;2012;49.794;9.722;2023-04-24T08:28:39;11.30;99.90
3996;DHT22;2012;49.794;9.722;2023-04-24T08:31:06;11.30;99.90
3996;DHT22;2012;49.794;9.722;2023-04-24T08:33:33;11.40;99.90
3996;DHT22;2012;49.794;9.722;2023-04-24T08:36:04;11.20;99.90
3996;DHT22;2012;49.794;9.722;2023-04-24T08:38:31;11.20;99.90
3996;DHT22;2012;49.794;9.722;2023-04-24T08:40:59;11.30;99.90
3996;DHT22;2012;49.794;9.722;2023-04-24T08:43:27;11.40;99.90
3996;DHT22;2012;49.794;9.722;2023-04-24T08:45:56;11.30;99.90
3996;DHT22;2012;49.794;9.722;2023-04-24T08:48:23;11.40;99.90
3996;DHT22;2012;49.794;9.722;2023-04-24T08:50:58;11.60;99.90
3996;DHT22;2012;49.794;9.722;2023-04-24T08:53:26;11.50;99.90
3996;DHT22;2012;49.794;9.722;2023-04-24T08:55:55;11.40;99.90
3996;DHT22;2012;49.794;9.722;2023-04-24T08:58:25;11.40;99.90
3996;DHT22;2012;49.794;9.722;2023-04-24T09:00:56;11.70;99.90
3996;DHT22;2012;49.794;9.722;2023-04-24T09:03:23;12.00;99.90
3996;DHT22;2012;49.794;9.722;2023-04-24T09:05:52;11.90;99.90
3996;DHT22;2012;49.794;9.722;2023-04-24T09:08:24;12.00;99.90
3996;DHT22;2012;49.794;9.722;2023-04-24T09:10:51;12.00;99.90
3996;DHT22;2012;49.794;9.722;2023-04-24T09:13:19;12.00;99.90
3996;DHT22;2012;49.794;9.722;2023-04-24T09:15:47;12.30;99.90
3996;DHT22;2012;49.794;9.722;2023-04-24T09:18:14;12.30;99.90
3996;DHT22;2012;49.794;9.722;2023-04-24T09:21:02;12.30;99.90
3996;DHT22;2012;49.794;9.722;2023-04-24T09:23:30;12.30;99.90
3996;DHT22;2012;49.794;9.722;2023-04-24T09:25:59;12.30;99.90
3996;DHT22;2012;49.794;9.722;2023-04-24T09:28:36;12.40;99.90
3996;DHT22;2012;49.794;9.722;2023-04-24T09:31:16;12.40;99.90
3996;DHT22;2012;49.794;9.722;2023-04-24T09:33:55;12.50;99.90
3996;DHT22;2012;49.794;9.722;2023-04-24T09:36:29;12.50;99.90
3996;DHT22;2012;49.794;9.722;2023-04-24T09:39:02;12.50;99.90
3996;DHT22;2012;49.794;9.722;2023-04-24T09:41:29;12.40;99.90
3996;DHT22;2012;49.794;9.722;2023-04-24T09:43:56;12.40;99.90
3996;DHT22;2012;49.794;9.722;2023-04-24T09:46:30;12.50;99.90
3996;DHT22;2012;49.794;9.722;2023-04-24T09:49:14;12.30;99.90
3996;DHT22;2012;49.794;9.722;2023-04-24T09:51:42;12.20;99.90
3996;DHT22;2012;49.794;9.722;2023-04-24T09:54:17;12.00;99.90
3996;DHT22;2012;49.794;9.722;2023-04-24T09:56:46;12.00;99.90
3996;DHT22;2012;49.794;9.722;2023-04-24T09:59:17;12.10;99.90
3996;DHT22;2012;49.794;9.722;2023-04-24T10:01:44;12.30;99.90
3996;DHT22;2012;49.794;9.722;2023-04-24T10:04:22;12.50;99.90
3996;DHT22;2012;49.794;9.722;2023-04-24T10:06:52;12.70;99.90
3996;DHT22;2012;49.794;9.722;2023-04-24T10:09:21;12.90;99.90
3996;DHT22;2012;49.794;9.722;2023-04-24T10:11:49;12.90;99.90
3996;DHT22;2012;49.794;9.722;2023-04-24T10:14:23;12.80;99.90
3996;DHT22;2012;49.794;9.722;2023-04-24T10:16:53;12.80;99.90
3996;DHT22;2012;49.794;9.722;2023-04-24T10:19:20;12.80;99.90
3996;DHT22;2012;49.794;9.722;2023-04-24T10:21:47;12.70;99.90
3996;DHT22;2012;49.794;9.722;2023-04-24T10:24:15;12.50;99.90
3996;DHT22;2012;49.794;9.722;2023-04-24T10:26:44;12.40;99.90
3996;DHT22;2012;49.794;9.722;2023-04-24T10:29:16;12.30;99.90
3996;DHT22;2012;49.794;9.722;2023-04-24T10:31:44;12.30;99.90
3996;DHT22;2012;49.794;9.722;2023-04-24T10:34:14;12.30;99.90
3996;DHT22;2012;49.794;9.722;2023-04-24T10:36:45;12.20;99.90
3996;DHT22;2012;49.794;9.722;2023-04-24T10:39:13;12.10;99.90
3996;DHT22;2012;49.794;9.722;2023-04-24T10:41:41;12.10;99.90
3996;DHT22;2012;49.794;9.722;2023-04-24T10:44:14;12.10;99.90
3996;DHT22;2012;49.794;9.722;2023-04-24T10:46:45;12.10;99.90
3996;DHT22;2012;49.794;9.722;2023-04-24T10:49:13;12.10;99.90
3996;DHT22;2012;49.794;9.722;2023-04-24T10:51:46;12.20;99.90
3996;DHT22;2012;49.794;9.722;2023-04-24T10:54:35;12.20;99.90
3996;DHT22;2012;49.794;9.722;2023-04-24T10:59:50;12.50;99.90
3996;DHT22;2012;49.794;9.722;2023-04-24T11:02:18;12.30;99.90
3996;DHT22;2012;49.794;9.722;2023-04-24T11:04:45;12.40;99.90
3996;DHT22;2012;49.794;9.722;2023-04-24T11:07:13;12.30;99.90
3996;DHT22;2012;49.794;9.722;2023-04-24T11:09:42;12.30;99.90
3996;DHT22;2012;49.794;9.722;2023-04-24T11:12:11;12.20;99.90
3996;DHT22;2012;49.794;9.722;2023-04-24T11:17:36;12.20;99.90
3996;DHT22;2012;49.794;9.722;2023-04-24T11:20:16;12.10;99.90
3996;DHT22;2012;49.794;9.722;2023-04-24T11:22:54;12.10;99.90
3996;DHT22;2012;49.794;9.722;2023-04-24T11:25:22;12.00;99.90
3996;DHT22;2012;49.794;9.722;2023-04-24T11:27:49;11.90;99.90
3996;DHT22;2012;49.794;9.722;2023-04-24T11:30:19;11.90;99.90
3996;DHT22;2012;49.794;9.722;2023-04-24T11:32:52;12.00;99.90
3996;DHT22;2012;49.794;9.722;2023-04-24T11:35:23;11.90;99.90
3996;DHT22;2012;49.794;9.722;2023-04-24T11:37:55;12.00;99.90
3996;DHT22;2012;49.794;9.722;2023-04-24T11:40:25;12.00;99.90
3996;DHT22;2012;49.794;9.722;2023-04-24T11:42:54;11.90;99.90
3996;DHT22;2012;49.794;9.722;2023-04-24T11:45:28;11.80;99.90
3996;DHT22;2012;49.794;9.722;2023-04-24T11:47:55;11.80;99.90
3996;DHT22;2012;49.794;9.722;2023-04-24T11:50:23;11.90;99.90
3996;DHT22;2012;49.794;9.722;2023-04-24T11:52:52;12.10;99.90
3996;DHT22;2012;49.794;9.722;2023-04-24T11:57:47;12.90;99.90
3996;DHT22;2012;49.794;9.722;2023-04-24T12:00:20;13.10;99.90
3996;DHT22;2012;49.794;9.722;2023-04-24T12:02:48;13.50;99.90
3996;DHT22;2012;49.794;9.722;2023-04-24T12:05:26;13.40;99.90
3996;DHT22;2012;49.794;9.722;2023-04-24T12:07:54;13.20;99.90
3996;DHT22;2012;49.794;9.722;2023-04-24T12:10:26;13.20;99.90
3996;DHT22;2012;49.794;9.722;2023-04-24T12:12:53;13.10;99.90
3996;DHT22;2012;49.794;9.722;2023-04-24T12:15:22;13.40;99.90
3996;DHT22;2012;49.794;9.722;2023-04-24T12:17:51;13.60;99.90
3996;DHT22;2012;49.794;9.722;2023-04-24T12:20:27;13.50;99.90
3996;DHT22;2012;49.794;9.722;2023-04-24T12:22:56;13.40;99.90
3996;DHT22;2012;49.794;9.722;2023-04-24T12:25:25;13.30;99.90
3996;DHT22;2012;49.794;9.722;2023-04-24T12:28:15;13.40;99.90
3996;DHT22;2012;49.794;9.722;2023-04-24T12:30:47;13.40;99.90
3996;DHT22;2012;49.794;9.722;2023-04-24T12:33:22;13.20;99.90
3996;DHT22;2012;49.794;9.722;2023-04-24T12:35:52;13.10;99.90
3996;DHT22;2012;49.794;9.722;2023-04-24T12:38:25;13.00;99.90
3996;DHT22;2012;49.794;9.722;2023-04-24T12:41:21;12.90;99.90
3996;DHT22;2012;49.794;9.722;2023-04-24T12:43:54;12.80;99.90
3996;DHT22;2012;49.794;9.722;2023-04-24T12:46:22;12.70;99.90
3996;DHT22;2012;49.794;9.722;2023-04-24T12:48:48;12.60;99.90
3996;DHT22;2012;49.794;9.722;2023-04-24T12:51:15;12.50;99.90
3996;DHT22;2012;49.794;9.722;2023-04-24T12:53:42;12.60;99.90
3996;DHT22;2012;49.794;9.722;2023-04-24T12:56:09;12.60;99.90
3996;DHT22;2012;49.794;9.722;2023-04-24T12:58:36;12.50;99.90
3996;DHT22;2012;49.794;9.722;2023-04-24T13:01:04;12.60;99.90
3996;DHT22;2012;49.794;9.722;2023-04-24T13:03:30;12.50;99.90
3996;DHT22;2012;49.794;9.722;2023-04-24T13:05:58;12.40;99.90
3996;DHT22;2012;49.794;9.722;2023-04-24T13:08:24;12.30;99.90
3996;DHT22;2012;49.794;9.722;2023-04-24T13:10:51;12.40;99.90
3996;DHT22;2012;49.794;9.722;2023-04-24T13:13:18;12.40;99.90
3996;DHT22;2012;49.794;9.722;2023-04-24T13:15:45;12.30;99.90
3996;DHT22;2012;49.794;9.722;2023-04-24T13:18:12;12.30;99.90
3996;DHT22;2012;49.794;9.722;2023-04-24T13:20:39;12.30;99.90
3996;DHT22;2012;49.794;9.722;2023-04-24T13:23:07;12.30;99.90
3996;DHT22;2012;49.794;9.722;2023-04-24T13:25:35;12.60;99.90
3996;DHT22;2012;49.794;9.722;2023-04-24T13:28:03;12.70;99.90
3996;DHT22;2012;49.794;9.722;2023-04-24T13:30:31;12.60;99.90
3996;DHT22;2012;49.794;9.722;2023-04-24T13:32:58;12.40;99.90
3996;DHT22;2012;49.794;9.722;2023-04-24T13:35:25;12.50;99.90
3996;DHT22;2012;49.794;9.722;2023-04-24T13:37:52;12.40;99.90
3996;DHT22;2012;49.794;9.722;2023-04-24T13:40:18;12.40;99.90
3996;DHT22;2012;49.794;9.722;2023-04-24T13:42:45;12.50;99.90
3996;DHT22;2012;49.794;9.722;2023-04-24T13:45:12;12.30;99.90
3996;DHT22;2012;49.794;9.722;2023-04-24T13:47:50;12.20;99.90
3996;DHT22;2012;49.794;9.722;2023-04-24T13:50:18;12.00;99.90
3996;DHT22;2012;49.794;9.722;2023-04-24T13:52:45;11.90;99.90
3996;DHT22;2012;49.794;9.722;2023-04-24T13:55:12;12.00;99.90
3996;DHT22;2012;49.794;9.722;2023-04-24T13:57:39;12.00;99.90
3996;DHT22;2012;49.794;9.722;2023-04-24T14:00:06;11.60;99.90
3996;DHT22;2012;49.794;9.722;2023-04-24T14:02:37;11.50;99.90
3996;DHT22;2012;49.794;9.722;2023-04-24T14:05:04;11.30;99.90
3996;DHT22;2012;49.794;9.722;2023-04-24T14:07:32;11.30;99.90
3996;DHT22;2012;49.794;9.722;2023-04-24T14:09:59;11.30;99.90
3996;DHT22;2012;49.794;9.722;2023-04-24T14:12:26;11.50;99.90
3996;DHT22;2012;49.794;9.722;2023-04-24T14:14:54;11.60;99.90
3996;DHT22;2012;49.794;9.722;2023-04-24T14:17:21;12.00;99.90
3996;DHT22;2012;49.794;9.722;2023-04-24T14:19:47;12.40;99.90
3996;DHT22;2012;49.794;9.722;2023-04-24T14:22:14;12.60;99.90
3996;DHT22;2012;49.794;9.722;2023-04-24T14:24:41;13.00;99.90
3996;DHT22;2012;49.794;9.722;2023-04-24T14:27:08;13.10;99.90
3996;DHT22;2012;49.794;9.722;2023-04-24T14:29:35;13.00;99.90
3996;DHT22;2012;49.794;9.722;2023-04-24T14:32:03;13.50;99.90
3996;DHT22;2012;49.794;9.722;2023-04-24T14:34:30;13.70;99.90
3996;DHT22;2012;49.794;9.722;2023-04-24T14:36:56;13.90;99.90
3996;DHT22;2012;49.794;9.722;2023-04-24T14:39:25;14.10;99.90
3996;DHT22;2012;49.794;9.722;2023-04-24T14:41:52;14.40;99.90
3996;DHT22;2012;49.794;9.722;2023-04-24T14:44:19;14.40;99.90
3996;DHT22;2012;49.794;9.722;2023-04-24T14:46:45;14.20;99.90
3996;DHT22;2012;49.794;9.722;2023-04-24T14:49:12;14.10;99.90
3996;DHT22;2012;49.794;9.722;2023-04-24T14:51:39;14.40;99.90
3996;DHT22;2012;49.794;9.722;2023-04-24T14:54:07;14.10;99.90
3996;DHT22;2012;49.794;9.722;2023-04-24T14:56:34;13.90;99.90
3996;DHT22;2012;49.794;9.722;2023-04-24T14:59:01;14.00;99.90
3996;DHT22;2012;49.794;9.722;2023-04-24T15:01:28;14.00;99.90
3996;DHT22;2012;49.794;9.722;2023-04-24T15:03:55;14.00;99.90
3996;DHT22;2012;49.794;9.722;2023-04-24T15:06:22;13.80;99.90
3996;DHT22;2012;49.794;9.722;2023-04-24T15:08:49;13.90;99.90
3996;DHT22;2012;49.794;9.722;2023-04-24T15:11:16;13.90;99.90
3996;DHT22;2012;49.794;9.722;2023-04-24T15:13:43;14.10;99.90
3996;DHT22;2012;49.794;9.722;2023-04-24T15:16:14;14.00;99.90
3996;DHT22;2012;49.794;9.722;2023-04-24T15:18:41;13.80;99.90
3996;DHT22;2012;49.794;9.722;2023-04-24T15:21:08;13.70;99.90
3996;DHT22;2012;49.794;9.722;2023-04-24T15:23:35;13.60;99.90
3996;DHT22;2012;49.794;9.722;2023-04-24T15:26:01;13.60;99.90
3996;DHT22;2012;49.794;9.722;2023-04-24T15:28:28;13.50;99.90
3996;DHT22;2012;49.794;9.722;2023-04-24T15:30:55;13.50;99.90
3996;DHT22;2012;49.794;9.722;2023-04-24T15:33:22;13.40;99.90
3996;DHT22;2012;49.794;9.722;2023-04-24T15:35:49;13.30;99.90
3996;DHT22;2012;49.794;9.722;2023-04-24T15:38:17;13.30;99.90
3996;DHT22;2012;49.794;9.722;2023-04-24T15:40:44;13.20;99.90
3996;DHT22;2012;49.794;9.722;2023-04-24T15:43:11;13.20;99.90
3996;DHT22;2012;49.794;9.722;2023-04-24T15:45:38;13.30;99.90
3996;DHT22;2012;49.794;9.722;2023-04-24T15:48:04;13.20;99.90
3996;DHT22;2012;49.794;9.722;2023-04-24T15:50:32;13.30;99.90
3996;DHT22;2012;49.794;9.722;2023-04-24T15:52:59;13.40;99.90
3996;DHT22;2012;49.794;9.722;2023-04-24T15:55:27;13.50;99.90
3996;DHT22;2012;49.794;9.722;2023-04-24T15:57:54;13.30;99.90
3996;DHT22;2012;49.794;9.722;2023-04-24T16:00:21;13.50;99.90
3996;DHT22;2012;49.794;9.722;2023-04-24T16:02:48;13.40;99.90
3996;DHT22;2012;49.794;9.722;2023-04-24T16:05:17;13.40;99.90
3996;DHT22;2012;49.794;9.722;2023-04-24T16:07:45;13.50;99.90
3996;DHT22;2012;49.794;9.722;2023-04-24T16:10:12;13.20;99.90
3996;DHT22;2012;49.794;9.722;2023-04-24T16:12:39;13.30;99.90
3996;DHT22;2012;49.794;9.722;2023-04-24T16:15:06;13.30;99.90
3996;DHT22;2012;49.794;9.722;2023-04-24T16:17:33;13.20;99.90
3996;DHT22;2012;49.794;9.722;2023-04-24T16:20:00;13.10;99.90